sensor_id;sensor_type;location;lat;lon;timestamp;P1;durP1;ratioP1;P2;durP2;ratioP2
84301;SDS011;74468;52.218;6.896;2024-03-22T00:00:44;37.53;;;19.88;;
84301;SDS011;74468;52.218;6.896;2024-03-22T00:03:10;38.63;;;19.88;;
84301;SDS011;74468;52.218;6.896;2024-03-22T00:05:35;38.28;;;18.02;;
84301;SDS011;74468;52.218;6.896;2024-03-22T00:08:01;41.35;;;20.27;;
84301;SDS011;74468;52.218;6.896;2024-03-22T00:10:26;40.05;;;20.83;;
84301;SDS011;74468;52.218;6.896;2024-03-22T00:12:52;40.38;;;19.75;;
84301;SDS011;74468;52.218;6.896;2024-03-22T00:15:17;42.33;;;21.13;;
84301;SDS011;74468;52.218;6.896;2024-03-22T00:17:44;38.95;;;19.90;;
84301;SDS011;74468;52.218;6.896;2024-03-22T00:20:10;40.60;;;20.38;;
84301;SDS011;74468;52.218;6.896;2024-03-22T00:22:35;38.17;;;21.35;;
84301;SDS011;74468;52.218;6.896;2024-03-22T00:25:00;41.35;;;20.52;;
84301;SDS011;74468;52.218;6.896;2024-03-22T00:27:26;43.58;;;20.85;;
84301;SDS011;74468;52.218;6.896;2024-03-22T00:29:51;48.72;;;21.95;;
84301;SDS011;74468;52.218;6.896;2024-03-22T00:32:16;42.70;;;19.80;;
84301;SDS011;74468;52.218;6.896;2024-03-22T00:34:42;42.13;;;20.73;;
84301;SDS011;74468;52.218;6.896;2024-03-22T00:37:08;45.15;;;19.52;;
84301;SDS011;74468;52.218;6.896;2024-03-22T00:39:33;40.38;;;20.33;;
84301;SDS011;74468;52.218;6.896;2024-03-22T00:41:59;36.00;;;18.60;;
84301;SDS011;74468;52.218;6.896;2024-03-22T00:44:24;40.38;;;19.98;;
84301;SDS011;74468;52.218;6.896;2024-03-22T00:46:50;38.63;;;20.25;;
84301;SDS011;74468;52.218;6.896;2024-03-22T00:49:15;40.03;;;19.90;;
84301;SDS011;74468;52.218;6.896;2024-03-22T00:51:40;44.67;;;20.95;;
84301;SDS011;74468;52.218;6.896;2024-03-22T00:54:08;37.97;;;18.45;;
84301;SDS011;74468;52.218;6.896;2024-03-22T00:56:33;38.45;;;19.67;;
84301;SDS011;74468;52.218;6.896;2024-03-22T00:58:59;40.90;;;20.35;;
84301;SDS011;74468;52.218;6.896;2024-03-22T01:01:24;41.97;;;18.52;;
84301;SDS011;74468;52.218;6.896;2024-03-22T01:03:50;39.67;;;18.40;;
84301;SDS011;74468;52.218;6.896;2024-03-22T01:06:15;41.40;;;20.08;;
84301;SDS011;74468;52.218;6.896;2024-03-22T01:08:42;43.47;;;18.60;;
84301;SDS011;74468;52.218;6.896;2024-03-22T01:11:07;41.70;;;20.40;;
84301;SDS011;74468;52.218;6.896;2024-03-22T01:13:32;45.70;;;21.95;;
84301;SDS011;74468;52.218;6.896;2024-03-22T01:15:58;41.97;;;21.42;;
84301;SDS011;74468;52.218;6.896;2024-03-22T01:18:23;38.25;;;18.55;;
84301;SDS011;74468;52.218;6.896;2024-03-22T01:20:48;42.13;;;20.48;;
84301;SDS011;74468;52.218;6.896;2024-03-22T01:23:14;37.33;;;18.52;;
84301;SDS011;74468;52.218;6.896;2024-03-22T01:25:39;40.58;;;20.25;;
84301;SDS011;74468;52.218;6.896;2024-03-22T01:28:05;45.38;;;20.77;;
84301;SDS011;74468;52.218;6.896;2024-03-22T01:30:30;40.60;;;20.63;;
84301;SDS011;74468;52.218;6.896;2024-03-22T01:32:56;44.88;;;20.58;;
84301;SDS011;74468;52.218;6.896;2024-03-22T01:35:21;36.75;;;17.42;;
84301;SDS011;74468;52.218;6.896;2024-03-22T01:37:46;43.47;;;20.65;;
84301;SDS011;74468;52.218;6.896;2024-03-22T01:40:12;39.33;;;18.95;;
84301;SDS011;74468;52.218;6.896;2024-03-22T01:45:03;44.03;;;19.63;;
84301;SDS011;74468;52.218;6.896;2024-03-22T01:47:29;46.60;;;19.40;;
84301;SDS011;74468;52.218;6.896;2024-03-22T01:49:54;45.15;;;19.55;;
84301;SDS011;74468;52.218;6.896;2024-03-22T01:52:20;46.95;;;20.15;;
84301;SDS011;74468;52.218;6.896;2024-03-22T01:54:45;42.03;;;19.38;;
84301;SDS011;74468;52.218;6.896;2024-03-22T01:57:11;43.63;;;20.33;;
84301;SDS011;74468;52.218;6.896;2024-03-22T01:59:36;40.05;;;19.48;;
84301;SDS011;74468;52.218;6.896;2024-03-22T02:02:02;44.08;;;20.45;;
84301;SDS011;74468;52.218;6.896;2024-03-22T02:04:27;47.97;;;21.02;;
84301;SDS011;74468;52.218;6.896;2024-03-22T02:06:53;43.45;;;20.08;;
84301;SDS011;74468;52.218;6.896;2024-03-22T02:09:18;46.55;;;19.98;;
84301;SDS011;74468;52.218;6.896;2024-03-22T02:11:45;42.38;;;20.52;;
84301;SDS011;74468;52.218;6.896;2024-03-22T02:14:11;50.97;;;22.30;;
84301;SDS011;74468;52.218;6.896;2024-03-22T02:16:36;47.63;;;18.90;;
84301;SDS011;74468;52.218;6.896;2024-03-22T02:19:05;48.03;;;20.70;;
84301;SDS011;74468;52.218;6.896;2024-03-22T02:21:31;49.72;;;21.25;;
84301;SDS011;74468;52.218;6.896;2024-03-22T02:23:56;50.83;;;20.88;;
84301;SDS011;74468;52.218;6.896;2024-03-22T02:26:21;48.33;;;20.20;;
84301;SDS011;74468;52.218;6.896;2024-03-22T02:28:47;47.33;;;20.92;;
84301;SDS011;74468;52.218;6.896;2024-03-22T02:31:12;44.05;;;20.90;;
84301;SDS011;74468;52.218;6.896;2024-03-22T02:33:37;49.63;;;21.65;;
84301;SDS011;74468;52.218;6.896;2024-03-22T02:36:03;47.63;;;20.45;;
84301;SDS011;74468;52.218;6.896;2024-03-22T02:38:28;47.90;;;21.35;;
84301;SDS011;74468;52.218;6.896;2024-03-22T02:40:54;48.53;;;20.50;;
84301;SDS011;74468;52.218;6.896;2024-03-22T02:43:19;49.08;;;21.52;;
84301;SDS011;74468;52.218;6.896;2024-03-22T02:45:46;48.92;;;22.33;;
84301;SDS011;74468;52.218;6.896;2024-03-22T02:48:12;44.17;;;18.52;;
84301;SDS011;74468;52.218;6.896;2024-03-22T02:50:37;48.53;;;21.50;;
84301;SDS011;74468;52.218;6.896;2024-03-22T02:53:03;42.92;;;19.75;;
84301;SDS011;74468;52.218;6.896;2024-03-22T02:55:29;55.80;;;24.95;;
84301;SDS011;74468;52.218;6.896;2024-03-22T02:57:55;45.15;;;21.67;;
84301;SDS011;74468;52.218;6.896;2024-03-22T03:00:21;46.95;;;20.88;;
84301;SDS011;74468;52.218;6.896;2024-03-22T03:02:47;43.90;;;17.55;;
84301;SDS011;74468;52.218;6.896;2024-03-22T03:05:12;49.33;;;20.33;;
84301;SDS011;74468;52.218;6.896;2024-03-22T03:07:37;53.13;;;22.80;;
84301;SDS011;74468;52.218;6.896;2024-03-22T03:10:03;52.00;;;21.25;;
84301;SDS011;74468;52.218;6.896;2024-03-22T03:12:29;52.15;;;21.70;;
84301;SDS011;74468;52.218;6.896;2024-03-22T03:14:54;52.70;;;20.05;;
84301;SDS011;74468;52.218;6.896;2024-03-22T03:17:19;53.33;;;22.23;;
84301;SDS011;74468;52.218;6.896;2024-03-22T03:19:45;50.35;;;21.20;;
84301;SDS011;74468;52.218;6.896;2024-03-22T03:22:10;49.17;;;22.05;;
84301;SDS011;74468;52.218;6.896;2024-03-22T03:24:35;52.95;;;22.70;;
84301;SDS011;74468;52.218;6.896;2024-03-22T03:27:01;46.50;;;20.20;;
84301;SDS011;74468;52.218;6.896;2024-03-22T03:31:52;46.25;;;20.40;;
84301;SDS011;74468;52.218;6.896;2024-03-22T03:34:18;46.80;;;20.33;;
84301;SDS011;74468;52.218;6.896;2024-03-22T03:36:44;44.65;;;18.23;;
84301;SDS011;74468;52.218;6.896;2024-03-22T03:39:10;53.38;;;22.10;;
84301;SDS011;74468;52.218;6.896;2024-03-22T03:41:35;53.67;;;22.00;;
84301;SDS011;74468;52.218;6.896;2024-03-22T03:44:00;50.25;;;21.95;;
84301;SDS011;74468;52.218;6.896;2024-03-22T03:46:26;48.75;;;20.95;;
84301;SDS011;74468;52.218;6.896;2024-03-22T03:48:51;49.10;;;21.67;;
84301;SDS011;74468;52.218;6.896;2024-03-22T03:51:16;48.25;;;21.83;;
84301;SDS011;74468;52.218;6.896;2024-03-22T03:53:42;48.53;;;22.05;;
84301;SDS011;74468;52.218;6.896;2024-03-22T03:56:07;48.10;;;22.05;;
84301;SDS011;74468;52.218;6.896;2024-03-22T03:58:32;46.97;;;21.90;;
84301;SDS011;74468;52.218;6.896;2024-03-22T04:00:58;53.72;;;22.42;;
84301;SDS011;74468;52.218;6.896;2024-03-22T04:03:23;49.20;;;21.25;;
84301;SDS011;74468;52.218;6.896;2024-03-22T04:05:58;48.88;;;20.40;;
84301;SDS011;74468;52.218;6.896;2024-03-22T04:08:24;45.85;;;20.52;;
84301;SDS011;74468;52.218;6.896;2024-03-22T04:10:51;46.10;;;21.40;;
84301;SDS011;74468;52.218;6.896;2024-03-22T04:13:17;49.42;;;21.40;;
84301;SDS011;74468;52.218;6.896;2024-03-22T04:15:42;46.53;;;20.77;;
84301;SDS011;74468;52.218;6.896;2024-03-22T04:18:08;51.38;;;24.30;;
84301;SDS011;74468;52.218;6.896;2024-03-22T04:20:33;50.70;;;22.38;;
84301;SDS011;74468;52.218;6.896;2024-03-22T04:22:58;46.55;;;21.52;;
84301;SDS011;74468;52.218;6.896;2024-03-22T04:25:24;44.95;;;20.67;;
84301;SDS011;74468;52.218;6.896;2024-03-22T04:27:49;48.38;;;20.85;;
84301;SDS011;74468;52.218;6.896;2024-03-22T04:30:14;45.72;;;21.13;;
84301;SDS011;74468;52.218;6.896;2024-03-22T04:32:40;46.47;;;20.77;;
84301;SDS011;74468;52.218;6.896;2024-03-22T04:35:05;46.42;;;18.73;;
84301;SDS011;74468;52.218;6.896;2024-03-22T04:37:31;44.63;;;21.00;;
84301;SDS011;74468;52.218;6.896;2024-03-22T04:39:56;47.13;;;21.65;;
84301;SDS011;74468;52.218;6.896;2024-03-22T04:42:22;52.58;;;21.63;;
84301;SDS011;74468;52.218;6.896;2024-03-22T04:44:47;46.75;;;21.35;;
84301;SDS011;74468;52.218;6.896;2024-03-22T04:47:13;51.28;;;22.65;;
84301;SDS011;74468;52.218;6.896;2024-03-22T04:49:38;46.28;;;21.90;;
84301;SDS011;74468;52.218;6.896;2024-03-22T04:52:04;49.70;;;21.25;;
84301;SDS011;74468;52.218;6.896;2024-03-22T04:54:29;42.58;;;20.33;;
84301;SDS011;74468;52.218;6.896;2024-03-22T04:56:54;46.20;;;21.20;;
84301;SDS011;74468;52.218;6.896;2024-03-22T04:59:20;49.40;;;19.50;;
84301;SDS011;74468;52.218;6.896;2024-03-22T05:01:45;53.42;;;21.30;;
84301;SDS011;74468;52.218;6.896;2024-03-22T05:04:10;47.83;;;23.00;;
84301;SDS011;74468;52.218;6.896;2024-03-22T05:06:36;53.33;;;22.48;;
84301;SDS011;74468;52.218;6.896;2024-03-22T05:09:01;44.40;;;22.35;;
84301;SDS011;74468;52.218;6.896;2024-03-22T05:11:28;48.67;;;22.23;;
84301;SDS011;74468;52.218;6.896;2024-03-22T05:13:54;50.35;;;23.63;;
84301;SDS011;74468;52.218;6.896;2024-03-22T05:16:19;51.70;;;21.92;;
84301;SDS011;74468;52.218;6.896;2024-03-22T05:18:44;51.53;;;22.42;;
84301;SDS011;74468;52.218;6.896;2024-03-22T05:21:10;52.58;;;24.35;;
84301;SDS011;74468;52.218;6.896;2024-03-22T05:23:35;48.45;;;22.48;;
84301;SDS011;74468;52.218;6.896;2024-03-22T05:26:00;49.95;;;19.75;;
84301;SDS011;74468;52.218;6.896;2024-03-22T05:28:26;51.30;;;23.02;;
84301;SDS011;74468;52.218;6.896;2024-03-22T05:30:51;43.67;;;24.00;;
84301;SDS011;74468;52.218;6.896;2024-03-22T05:33:16;44.05;;;21.27;;
84301;SDS011;74468;52.218;6.896;2024-03-22T05:35:42;48.90;;;21.83;;
84301;SDS011;74468;52.218;6.896;2024-03-22T05:38:07;50.20;;;23.95;;
84301;SDS011;74468;52.218;6.896;2024-03-22T05:40:32;46.03;;;22.92;;
84301;SDS011;74468;52.218;6.896;2024-03-22T05:43:01;47.60;;;22.80;;
84301;SDS011;74468;52.218;6.896;2024-03-22T05:45:27;46.03;;;21.23;;
84301;SDS011;74468;52.218;6.896;2024-03-22T05:47:52;43.05;;;21.58;;
84301;SDS011;74468;52.218;6.896;2024-03-22T05:50:17;53.00;;;24.42;;
84301;SDS011;74468;52.218;6.896;2024-03-22T05:52:43;44.67;;;22.20;;
84301;SDS011;74468;52.218;6.896;2024-03-22T05:55:08;46.03;;;22.27;;
84301;SDS011;74468;52.218;6.896;2024-03-22T05:57:34;48.35;;;23.27;;
84301;SDS011;74468;52.218;6.896;2024-03-22T05:59:59;53.88;;;23.92;;
84301;SDS011;74468;52.218;6.896;2024-03-22T06:02:24;48.70;;;23.55;;
84301;SDS011;74468;52.218;6.896;2024-03-22T06:04:50;50.42;;;23.17;;
84301;SDS011;74468;52.218;6.896;2024-03-22T06:07:15;49.58;;;24.45;;
84301;SDS011;74468;52.218;6.896;2024-03-22T06:09:42;44.80;;;22.42;;
84301;SDS011;74468;52.218;6.896;2024-03-22T06:12:13;50.47;;;25.60;;
84301;SDS011;74468;52.218;6.896;2024-03-22T06:14:42;48.95;;;23.40;;
84301;SDS011;74468;52.218;6.896;2024-03-22T06:17:08;49.03;;;23.15;;
84301;SDS011;74468;52.218;6.896;2024-03-22T06:19:34;44.58;;;23.85;;
84301;SDS011;74468;52.218;6.896;2024-03-22T06:22:00;46.70;;;22.52;;
84301;SDS011;74468;52.218;6.896;2024-03-22T06:24:26;44.92;;;22.48;;
84301;SDS011;74468;52.218;6.896;2024-03-22T06:26:51;45.63;;;22.17;;
84301;SDS011;74468;52.218;6.896;2024-03-22T06:29:16;45.25;;;21.98;;
84301;SDS011;74468;52.218;6.896;2024-03-22T06:31:42;42.60;;;21.08;;
84301;SDS011;74468;52.218;6.896;2024-03-22T06:34:07;43.05;;;20.65;;
84301;SDS011;74468;52.218;6.896;2024-03-22T06:36:33;40.50;;;20.67;;
84301;SDS011;74468;52.218;6.896;2024-03-22T06:38:58;40.63;;;21.58;;
84301;SDS011;74468;52.218;6.896;2024-03-22T06:41:24;40.47;;;19.40;;
84301;SDS011;74468;52.218;6.896;2024-03-22T06:43:51;42.55;;;22.02;;
84301;SDS011;74468;52.218;6.896;2024-03-22T06:46:16;41.72;;;20.58;;
84301;SDS011;74468;52.218;6.896;2024-03-22T06:48:41;41.30;;;21.50;;
84301;SDS011;74468;52.218;6.896;2024-03-22T06:51:07;43.67;;;21.88;;
84301;SDS011;74468;52.218;6.896;2024-03-22T06:53:32;40.17;;;22.27;;
84301;SDS011;74468;52.218;6.896;2024-03-22T06:55:58;38.63;;;19.98;;
84301;SDS011;74468;52.218;6.896;2024-03-22T06:58:23;41.47;;;21.25;;
84301;SDS011;74468;52.218;6.896;2024-03-22T07:00:48;35.58;;;19.35;;
84301;SDS011;74468;52.218;6.896;2024-03-22T07:03:14;39.90;;;20.40;;
84301;SDS011;74468;52.218;6.896;2024-03-22T07:05:39;40.33;;;19.75;;
84301;SDS011;74468;52.218;6.896;2024-03-22T07:08:05;41.38;;;20.05;;
84301;SDS011;74468;52.218;6.896;2024-03-22T07:10:30;33.80;;;18.63;;
84301;SDS011;74468;52.218;6.896;2024-03-22T07:12:56;39.25;;;20.92;;
84301;SDS011;74468;52.218;6.896;2024-03-22T07:15:25;37.05;;;19.15;;
84301;SDS011;74468;52.218;6.896;2024-03-22T07:17:50;33.50;;;16.95;;
84301;SDS011;74468;52.218;6.896;2024-03-22T07:20:16;34.00;;;18.98;;
84301;SDS011;74468;52.218;6.896;2024-03-22T07:22:43;34.75;;;16.85;;
84301;SDS011;74468;52.218;6.896;2024-03-22T07:25:08;33.92;;;17.25;;
84301;SDS011;74468;52.218;6.896;2024-03-22T07:27:36;35.42;;;18.35;;
84301;SDS011;74468;52.218;6.896;2024-03-22T07:30:02;34.25;;;17.17;;
84301;SDS011;74468;52.218;6.896;2024-03-22T07:32:28;33.22;;;16.25;;
84301;SDS011;74468;52.218;6.896;2024-03-22T07:34:54;34.15;;;16.70;;
84301;SDS011;74468;52.218;6.896;2024-03-22T07:37:19;31.05;;;16.40;;
84301;SDS011;74468;52.218;6.896;2024-03-22T07:39:45;33.50;;;17.27;;
84301;SDS011;74468;52.218;6.896;2024-03-22T07:42:11;33.33;;;17.17;;
84301;SDS011;74468;52.218;6.896;2024-03-22T07:44:36;35.65;;;17.08;;
84301;SDS011;74468;52.218;6.896;2024-03-22T07:47:01;29.70;;;16.35;;
84301;SDS011;74468;52.218;6.896;2024-03-22T07:49:27;33.25;;;16.40;;
84301;SDS011;74468;52.218;6.896;2024-03-22T07:51:52;31.27;;;16.67;;
84301;SDS011;74468;52.218;6.896;2024-03-22T07:54:18;29.77;;;15.48;;
84301;SDS011;74468;52.218;6.896;2024-03-22T07:56:43;33.95;;;17.20;;
84301;SDS011;74468;52.218;6.896;2024-03-22T07:59:08;31.98;;;16.08;;
84301;SDS011;74468;52.218;6.896;2024-03-22T08:01:34;28.17;;;15.77;;
84301;SDS011;74468;52.218;6.896;2024-03-22T08:03:59;31.60;;;15.50;;
84301;SDS011;74468;52.218;6.896;2024-03-22T08:06:24;36.00;;;17.25;;
84301;SDS011;74468;52.218;6.896;2024-03-22T08:08:50;31.40;;;16.48;;
84301;SDS011;74468;52.218;6.896;2024-03-22T08:11:15;30.75;;;16.40;;
84301;SDS011;74468;52.218;6.896;2024-03-22T08:13:40;28.75;;;15.75;;
84301;SDS011;74468;52.218;6.896;2024-03-22T08:16:06;31.67;;;15.57;;
84301;SDS011;74468;52.218;6.896;2024-03-22T08:18:31;31.38;;;17.25;;
84301;SDS011;74468;52.218;6.896;2024-03-22T08:20:58;31.15;;;16.77;;
84301;SDS011;74468;52.218;6.896;2024-03-22T08:23:24;30.27;;;16.15;;
84301;SDS011;74468;52.218;6.896;2024-03-22T08:25:49;27.75;;;15.25;;
84301;SDS011;74468;52.218;6.896;2024-03-22T08:28:14;27.08;;;15.80;;
84301;SDS011;74468;52.218;6.896;2024-03-22T08:30:40;28.48;;;14.27;;
84301;SDS011;74468;52.218;6.896;2024-03-22T08:33:07;27.52;;;16.63;;
84301;SDS011;74468;52.218;6.896;2024-03-22T08:35:32;30.45;;;15.38;;
84301;SDS011;74468;52.218;6.896;2024-03-22T08:37:57;30.35;;;15.55;;
84301;SDS011;74468;52.218;6.896;2024-03-22T08:40:23;28.77;;;16.58;;
84301;SDS011;74468;52.218;6.896;2024-03-22T08:42:49;28.63;;;15.18;;
84301;SDS011;74468;52.218;6.896;2024-03-22T08:45:14;28.90;;;15.30;;
84301;SDS011;74468;52.218;6.896;2024-03-22T08:47:41;25.98;;;14.05;;
84301;SDS011;74468;52.218;6.896;2024-03-22T08:50:07;26.55;;;14.93;;
84301;SDS011;74468;52.218;6.896;2024-03-22T08:52:32;27.58;;;15.52;;
84301;SDS011;74468;52.218;6.896;2024-03-22T08:54:59;28.38;;;13.60;;
84301;SDS011;74468;52.218;6.896;2024-03-22T08:57:24;29.67;;;15.65;;
84301;SDS011;74468;52.218;6.896;2024-03-22T08:59:50;28.15;;;14.88;;
84301;SDS011;74468;52.218;6.896;2024-03-22T09:02:15;25.35;;;14.07;;
84301;SDS011;74468;52.218;6.896;2024-03-22T09:04:42;26.75;;;14.73;;
84301;SDS011;74468;52.218;6.896;2024-03-22T09:07:07;29.40;;;15.10;;
84301;SDS011;74468;52.218;6.896;2024-03-22T09:09:33;25.38;;;14.15;;
84301;SDS011;74468;52.218;6.896;2024-03-22T09:11:58;26.77;;;13.18;;
84301;SDS011;74468;52.218;6.896;2024-03-22T09:14:24;29.92;;;15.27;;
84301;SDS011;74468;52.218;6.896;2024-03-22T09:16:49;25.63;;;13.85;;
84301;SDS011;74468;52.218;6.896;2024-03-22T09:19:14;29.17;;;14.77;;
84301;SDS011;74468;52.218;6.896;2024-03-22T09:21:40;27.83;;;14.93;;
84301;SDS011;74468;52.218;6.896;2024-03-22T09:24:05;26.38;;;13.10;;
84301;SDS011;74468;52.218;6.896;2024-03-22T09:26:34;29.05;;;15.10;;
84301;SDS011;74468;52.218;6.896;2024-03-22T09:29:00;27.17;;;14.73;;
84301;SDS011;74468;52.218;6.896;2024-03-22T09:31:25;30.80;;;14.85;;
84301;SDS011;74468;52.218;6.896;2024-03-22T09:33:51;28.20;;;13.75;;
84301;SDS011;74468;52.218;6.896;2024-03-22T09:36:16;27.50;;;14.63;;
84301;SDS011;74468;52.218;6.896;2024-03-22T09:38:41;30.05;;;15.93;;
84301;SDS011;74468;52.218;6.896;2024-03-22T09:41:07;28.08;;;14.27;;
84301;SDS011;74468;52.218;6.896;2024-03-22T09:43:32;31.52;;;14.98;;
84301;SDS011;74468;52.218;6.896;2024-03-22T09:45:58;30.95;;;13.88;;
84301;SDS011;74468;52.218;6.896;2024-03-22T09:48:23;27.80;;;14.00;;
84301;SDS011;74468;52.218;6.896;2024-03-22T09:50:49;24.38;;;13.52;;
84301;SDS011;74468;52.218;6.896;2024-03-22T09:53:21;31.40;;;14.63;;
84301;SDS011;74468;52.218;6.896;2024-03-22T09:55:47;30.77;;;13.30;;
84301;SDS011;74468;52.218;6.896;2024-03-22T09:58:13;33.25;;;16.30;;
84301;SDS011;74468;52.218;6.896;2024-03-22T10:00:39;27.40;;;13.85;;
84301;SDS011;74468;52.218;6.896;2024-03-22T10:03:04;28.85;;;14.52;;
84301;SDS011;74468;52.218;6.896;2024-03-22T10:05:33;31.65;;;14.57;;
84301;SDS011;74468;52.218;6.896;2024-03-22T10:07:58;29.40;;;15.63;;
84301;SDS011;74468;52.218;6.896;2024-03-22T10:10:24;32.00;;;16.05;;
84301;SDS011;74468;52.218;6.896;2024-03-22T10:12:50;30.33;;;15.25;;
84301;SDS011;74468;52.218;6.896;2024-03-22T10:15:18;31.70;;;15.27;;
84301;SDS011;74468;52.218;6.896;2024-03-22T10:17:43;27.90;;;14.07;;
84301;SDS011;74468;52.218;6.896;2024-03-22T10:20:12;29.35;;;14.63;;
84301;SDS011;74468;52.218;6.896;2024-03-22T10:22:57;30.15;;;15.77;;
84301;SDS011;74468;52.218;6.896;2024-03-22T10:25:24;28.83;;;14.80;;
84301;SDS011;74468;52.218;6.896;2024-03-22T10:27:53;35.17;;;14.80;;
84301;SDS011;74468;52.218;6.896;2024-03-22T10:30:19;30.50;;;13.68;;
84301;SDS011;74468;52.218;6.896;2024-03-22T10:32:44;28.75;;;14.95;;
84301;SDS011;74468;52.218;6.896;2024-03-22T10:35:13;30.98;;;15.93;;
84301;SDS011;74468;52.218;6.896;2024-03-22T10:37:39;34.83;;;15.15;;
84301;SDS011;74468;52.218;6.896;2024-03-22T10:40:05;28.40;;;14.50;;
84301;SDS011;74468;52.218;6.896;2024-03-22T10:42:38;28.08;;;14.75;;
84301;SDS011;74468;52.218;6.896;2024-03-22T10:45:07;27.58;;;15.57;;
84301;SDS011;74468;52.218;6.896;2024-03-22T10:47:34;32.90;;;15.93;;
84301;SDS011;74468;52.218;6.896;2024-03-22T10:52:25;26.70;;;14.20;;
84301;SDS011;74468;52.218;6.896;2024-03-22T10:54:51;30.65;;;14.32;;
84301;SDS011;74468;52.218;6.896;2024-03-22T10:57:16;30.15;;;14.82;;
84301;SDS011;74468;52.218;6.896;2024-03-22T10:59:42;27.35;;;14.73;;
84301;SDS011;74468;52.218;6.896;2024-03-22T11:02:10;27.85;;;14.40;;
84301;SDS011;74468;52.218;6.896;2024-03-22T11:04:36;30.38;;;14.25;;
84301;SDS011;74468;52.218;6.896;2024-03-22T11:07:01;27.55;;;13.93;;
84301;SDS011;74468;52.218;6.896;2024-03-22T11:09:28;26.90;;;14.10;;
84301;SDS011;74468;52.218;6.896;2024-03-22T11:11:55;28.50;;;14.88;;
84301;SDS011;74468;52.218;6.896;2024-03-22T11:14:21;28.80;;;14.25;;
84301;SDS011;74468;52.218;6.896;2024-03-22T11:16:49;29.08;;;14.45;;
84301;SDS011;74468;52.218;6.896;2024-03-22T11:19:14;27.58;;;14.43;;
84301;SDS011;74468;52.218;6.896;2024-03-22T11:21:40;29.13;;;15.23;;
84301;SDS011;74468;52.218;6.896;2024-03-22T11:24:05;35.15;;;14.15;;
84301;SDS011;74468;52.218;6.896;2024-03-22T11:26:31;26.55;;;14.85;;
84301;SDS011;74468;52.218;6.896;2024-03-22T11:28:58;27.30;;;14.38;;
84301;SDS011;74468;52.218;6.896;2024-03-22T11:33:52;28.42;;;14.50;;
84301;SDS011;74468;52.218;6.896;2024-03-22T11:38:43;26.88;;;14.40;;
84301;SDS011;74468;52.218;6.896;2024-03-22T11:41:09;27.17;;;13.93;;
84301;SDS011;74468;52.218;6.896;2024-03-22T11:43:35;23.35;;;12.43;;
84301;SDS011;74468;52.218;6.896;2024-03-22T11:46:00;23.05;;;13.00;;
84301;SDS011;74468;52.218;6.896;2024-03-22T11:48:26;25.35;;;12.80;;
84301;SDS011;74468;52.218;6.896;2024-03-22T11:50:52;24.83;;;13.73;;
84301;SDS011;74468;52.218;6.896;2024-03-22T11:53:17;27.75;;;13.25;;
84301;SDS011;74468;52.218;6.896;2024-03-22T11:55:42;24.20;;;11.35;;
84301;SDS011;74468;52.218;6.896;2024-03-22T11:58:11;29.20;;;14.02;;
84301;SDS011;74468;52.218;6.896;2024-03-22T12:00:37;24.05;;;12.68;;
84301;SDS011;74468;52.218;6.896;2024-03-22T12:03:05;27.48;;;14.50;;
84301;SDS011;74468;52.218;6.896;2024-03-22T12:05:31;25.63;;;12.30;;
84301;SDS011;74468;52.218;6.896;2024-03-22T12:07:57;22.95;;;11.75;;
84301;SDS011;74468;52.218;6.896;2024-03-22T12:10:22;29.42;;;11.88;;
84301;SDS011;74468;52.218;6.896;2024-03-22T12:12:47;28.42;;;14.30;;
84301;SDS011;74468;52.218;6.896;2024-03-22T12:15:13;28.33;;;13.75;;
84301;SDS011;74468;52.218;6.896;2024-03-22T12:17:38;28.33;;;14.40;;
84301;SDS011;74468;52.218;6.896;2024-03-22T12:20:05;26.30;;;13.77;;
84301;SDS011;74468;52.218;6.896;2024-03-22T12:22:33;31.30;;;13.75;;
84301;SDS011;74468;52.218;6.896;2024-03-22T12:24:59;28.08;;;14.57;;
84301;SDS011;74468;52.218;6.896;2024-03-22T12:27:24;30.92;;;14.50;;
84301;SDS011;74468;52.218;6.896;2024-03-22T12:29:50;34.42;;;14.82;;
84301;SDS011;74468;52.218;6.896;2024-03-22T12:32:15;27.40;;;13.77;;
84301;SDS011;74468;52.218;6.896;2024-03-22T12:34:41;33.75;;;15.02;;
84301;SDS011;74468;52.218;6.896;2024-03-22T12:37:06;30.13;;;14.63;;
84301;SDS011;74468;52.218;6.896;2024-03-22T12:39:32;29.10;;;13.68;;
84301;SDS011;74468;52.218;6.896;2024-03-22T12:41:57;25.00;;;13.98;;
84301;SDS011;74468;52.218;6.896;2024-03-22T12:44:23;26.83;;;14.55;;
84301;SDS011;74468;52.218;6.896;2024-03-22T12:46:48;27.52;;;13.40;;
84301;SDS011;74468;52.218;6.896;2024-03-22T12:49:16;25.25;;;13.23;;
84301;SDS011;74468;52.218;6.896;2024-03-22T12:51:41;26.20;;;12.88;;
84301;SDS011;74468;52.218;6.896;2024-03-22T12:54:07;26.45;;;13.25;;
84301;SDS011;74468;52.218;6.896;2024-03-22T12:56:32;23.98;;;12.65;;
84301;SDS011;74468;52.218;6.896;2024-03-22T12:58:58;22.65;;;12.30;;
84301;SDS011;74468;52.218;6.896;2024-03-22T13:01:24;21.92;;;11.85;;
84301;SDS011;74468;52.218;6.896;2024-03-22T13:03:49;20.60;;;10.35;;
84301;SDS011;74468;52.218;6.896;2024-03-22T13:06:14;17.92;;;10.60;;
84301;SDS011;74468;52.218;6.896;2024-03-22T13:08:40;17.02;;;9.50;;
84301;SDS011;74468;52.218;6.896;2024-03-22T13:11:05;17.63;;;10.23;;
84301;SDS011;74468;52.218;6.896;2024-03-22T13:13:34;16.25;;;9.15;;
84301;SDS011;74468;52.218;6.896;2024-03-22T13:15:59;18.33;;;9.60;;
84301;SDS011;74468;52.218;6.896;2024-03-22T13:18:27;14.25;;;9.25;;
84301;SDS011;74468;52.218;6.896;2024-03-22T13:20:52;12.15;;;8.45;;
84301;SDS011;74468;52.218;6.896;2024-03-22T13:23:18;14.43;;;8.85;;
84301;SDS011;74468;52.218;6.896;2024-03-22T13:25:43;15.85;;;9.20;;
84301;SDS011;74468;52.218;6.896;2024-03-22T13:28:09;15.93;;;8.75;;
84301;SDS011;74468;52.218;6.896;2024-03-22T13:30:34;14.50;;;8.52;;
84301;SDS011;74468;52.218;6.896;2024-03-22T13:33:02;16.10;;;8.65;;
84301;SDS011;74468;52.218;6.896;2024-03-22T13:35:28;14.65;;;9.45;;
84301;SDS011;74468;52.218;6.896;2024-03-22T13:37:53;17.60;;;8.68;;
84301;SDS011;74468;52.218;6.896;2024-03-22T13:40:18;14.52;;;8.30;;
84301;SDS011;74468;52.218;6.896;2024-03-22T13:42:44;14.57;;;8.48;;
84301;SDS011;74468;52.218;6.896;2024-03-22T13:45:10;13.98;;;8.88;;
84301;SDS011;74468;52.218;6.896;2024-03-22T13:47:35;13.57;;;8.15;;
84301;SDS011;74468;52.218;6.896;2024-03-22T13:50:03;14.05;;;8.73;;
84301;SDS011;74468;52.218;6.896;2024-03-22T13:52:34;12.50;;;8.32;;
84301;SDS011;74468;52.218;6.896;2024-03-22T13:55:00;14.10;;;8.23;;
84301;SDS011;74468;52.218;6.896;2024-03-22T13:57:26;10.23;;;5.90;;
84301;SDS011;74468;52.218;6.896;2024-03-22T13:59:52;11.30;;;7.15;;
84301;SDS011;74468;52.218;6.896;2024-03-22T14:04:43;8.77;;;6.03;;
84301;SDS011;74468;52.218;6.896;2024-03-22T14:07:09;11.70;;;6.47;;
84301;SDS011;74468;52.218;6.896;2024-03-22T14:09:34;12.68;;;7.32;;
84301;SDS011;74468;52.218;6.896;2024-03-22T14:12:00;11.15;;;6.55;;
84301;SDS011;74468;52.218;6.896;2024-03-22T14:14:28;8.95;;;5.97;;
84301;SDS011;74468;52.218;6.896;2024-03-22T14:16:54;10.52;;;6.80;;
84301;SDS011;74468;52.218;6.896;2024-03-22T14:19:19;9.02;;;5.53;;
84301;SDS011;74468;52.218;6.896;2024-03-22T14:21:45;10.45;;;5.85;;
84301;SDS011;74468;52.218;6.896;2024-03-22T14:24:14;7.70;;;5.28;;
84301;SDS011;74468;52.218;6.896;2024-03-22T14:26:39;6.78;;;5.28;;
84301;SDS011;74468;52.218;6.896;2024-03-22T14:29:11;7.13;;;5.22;;